sensor_id;sensor_type;location;lat;lon;timestamp;P1;durP1;ratioP1;P2;durP2;ratioP2
8626;SDS011;4351;51.422;6.794;2023-07-13T00:00:02;4.83;;;1.40;;
8626;SDS011;4351;51.422;6.794;2023-07-13T00:02:34;4.03;;;1.53;;
8626;SDS011;4351;51.422;6.794;2023-07-13T00:05:02;3.83;;;1.10;;
8626;SDS011;4351;51.422;6.794;2023-07-13T00:07:31;3.67;;;1.50;;
8626;SDS011;4351;51.422;6.794;2023-07-13T00:09:59;3.27;;;1.30;;
8626;SDS011;4351;51.422;6.794;2023-07-13T00:12:29;5.20;;;1.57;;
8626;SDS011;4351;51.422;6.794;2023-07-13T00:14:59;6.20;;;1.90;;
8626;SDS011;4351;51.422;6.794;2023-07-13T00:17:28;3.47;;;1.57;;
8626;SDS011;4351;51.422;6.794;2023-07-13T00:19:56;3.87;;;1.70;;
8626;SDS011;4351;51.422;6.794;2023-07-13T00:22:25;5.00;;;1.70;;
8626;SDS011;4351;51.422;6.794;2023-07-13T00:24:54;4.97;;;1.67;;
8626;SDS011;4351;51.422;6.794;2023-07-13T00:27:23;4.87;;;1.40;;
8626;SDS011;4351;51.422;6.794;2023-07-13T00:29:53;2.93;;;1.40;;
8626;SDS011;4351;51.422;6.794;2023-07-13T00:32:20;3.07;;;1.43;;
8626;SDS011;4351;51.422;6.794;2023-07-13T00:34:49;4.77;;;1.57;;
8626;SDS011;4351;51.422;6.794;2023-07-13T00:37:19;3.40;;;1.10;;
8626;SDS011;4351;51.422;6.794;2023-07-13T00:39:47;4.43;;;1.17;;
8626;SDS011;4351;51.422;6.794;2023-07-13T00:42:16;4.70;;;1.27;;
8626;SDS011;4351;51.422;6.794;2023-07-13T00:47:31;4.87;;;1.57;;
8626;SDS011;4351;51.422;6.794;2023-07-13T00:50:00;3.40;;;1.60;;
8626;SDS011;4351;51.422;6.794;2023-07-13T00:52:28;3.50;;;1.50;;
8626;SDS011;4351;51.422;6.794;2023-07-13T00:54:57;3.43;;;1.50;;
8626;SDS011;4351;51.422;6.794;2023-07-13T00:57:27;3.57;;;1.23;;
8626;SDS011;4351;51.422;6.794;2023-07-13T00:59:55;3.57;;;1.67;;
8626;SDS011;4351;51.422;6.794;2023-07-13T01:02:26;4.27;;;1.17;;
8626;SDS011;4351;51.422;6.794;2023-07-13T01:04:55;3.77;;;1.53;;
8626;SDS011;4351;51.422;6.794;2023-07-13T01:07:24;2.20;;;1.10;;
8626;SDS011;4351;51.422;6.794;2023-07-13T01:09:56;4.57;;;1.63;;
8626;SDS011;4351;51.422;6.794;2023-07-13T01:12:24;5.77;;;1.50;;
8626;SDS011;4351;51.422;6.794;2023-07-13T01:14:57;5.70;;;1.70;;
8626;SDS011;4351;51.422;6.794;2023-07-13T01:17:26;5.73;;;1.73;;
8626;SDS011;4351;51.422;6.794;2023-07-13T01:19:55;5.93;;;1.87;;
8626;SDS011;4351;51.422;6.794;2023-07-13T01:22:24;8.30;;;2.00;;
8626;SDS011;4351;51.422;6.794;2023-07-13T01:24:53;4.93;;;1.90;;
8626;SDS011;4351;51.422;6.794;2023-07-13T01:27:22;3.37;;;1.53;;
8626;SDS011;4351;51.422;6.794;2023-07-13T01:29:52;5.60;;;1.83;;
8626;SDS011;4351;51.422;6.794;2023-07-13T01:32:28;6.03;;;1.63;;
8626;SDS011;4351;51.422;6.794;2023-07-13T01:34:58;4.90;;;1.70;;
8626;SDS011;4351;51.422;6.794;2023-07-13T01:37:27;3.40;;;1.60;;
8626;SDS011;4351;51.422;6.794;2023-07-13T01:40:02;4.93;;;1.90;;
8626;SDS011;4351;51.422;6.794;2023-07-13T01:42:30;7.57;;;2.13;;
8626;SDS011;4351;51.422;6.794;2023-07-13T01:44:58;6.23;;;1.90;;
8626;SDS011;4351;51.422;6.794;2023-07-13T01:47:29;6.30;;;1.80;;
8626;SDS011;4351;51.422;6.794;2023-07-13T01:49:57;4.43;;;1.70;;
8626;SDS011;4351;51.422;6.794;2023-07-13T01:52:26;3.87;;;1.80;;
8626;SDS011;4351;51.422;6.794;2023-07-13T01:54:54;5.40;;;1.60;;
8626;SDS011;4351;51.422;6.794;2023-07-13T01:57:22;6.30;;;1.40;;
8626;SDS011;4351;51.422;6.794;2023-07-13T01:59:50;6.43;;;1.73;;
8626;SDS011;4351;51.422;6.794;2023-07-13T02:02:18;5.57;;;1.80;;
8626;SDS011;4351;51.422;6.794;2023-07-13T02:04:46;5.03;;;1.53;;
8626;SDS011;4351;51.422;6.794;2023-07-13T02:07:14;6.33;;;1.63;;
8626;SDS011;4351;51.422;6.794;2023-07-13T02:09:44;4.53;;;1.60;;
8626;SDS011;4351;51.422;6.794;2023-07-13T02:12:12;3.47;;;1.20;;
8626;SDS011;4351;51.422;6.794;2023-07-13T02:14:40;4.50;;;1.47;;
8626;SDS011;4351;51.422;6.794;2023-07-13T02:17:09;4.23;;;1.43;;
8626;SDS011;4351;51.422;6.794;2023-07-13T02:19:37;3.63;;;1.40;;
8626;SDS011;4351;51.422;6.794;2023-07-13T02:22:05;6.17;;;1.70;;
8626;SDS011;4351;51.422;6.794;2023-07-13T02:24:32;6.27;;;1.87;;
8626;SDS011;4351;51.422;6.794;2023-07-13T02:27:02;4.20;;;1.60;;
8626;SDS011;4351;51.422;6.794;2023-07-13T02:29:30;7.27;;;1.60;;
8626;SDS011;4351;51.422;6.794;2023-07-13T02:31:58;3.53;;;1.77;;
8626;SDS011;4351;51.422;6.794;2023-07-13T02:34:26;6.10;;;1.83;;
8626;SDS011;4351;51.422;6.794;2023-07-13T02:36:58;3.27;;;1.37;;
8626;SDS011;4351;51.422;6.794;2023-07-13T02:39:26;4.47;;;1.60;;
8626;SDS011;4351;51.422;6.794;2023-07-13T02:41:54;5.43;;;1.93;;
8626;SDS011;4351;51.422;6.794;2023-07-13T02:44:23;4.40;;;1.70;;
8626;SDS011;4351;51.422;6.794;2023-07-13T02:46:51;6.07;;;2.20;;
8626;SDS011;4351;51.422;6.794;2023-07-13T02:49:19;5.13;;;1.60;;
8626;SDS011;4351;51.422;6.794;2023-07-13T02:51:46;4.10;;;1.63;;
8626;SDS011;4351;51.422;6.794;2023-07-13T02:54:14;5.30;;;1.93;;
8626;SDS011;4351;51.422;6.794;2023-07-13T02:56:43;5.17;;;2.30;;
8626;SDS011;4351;51.422;6.794;2023-07-13T02:59:11;8.03;;;2.03;;
8626;SDS011;4351;51.422;6.794;2023-07-13T03:01:40;6.03;;;2.27;;
8626;SDS011;4351;51.422;6.794;2023-07-13T03:04:08;5.10;;;1.77;;
8626;SDS011;4351;51.422;6.794;2023-07-13T03:06:36;4.87;;;2.00;;
8626;SDS011;4351;51.422;6.794;2023-07-13T03:09:04;7.67;;;2.10;;
8626;SDS011;4351;51.422;6.794;2023-07-13T03:11:34;5.37;;;2.20;;
8626;SDS011;4351;51.422;6.794;2023-07-13T03:14:12;5.50;;;2.10;;
8626;SDS011;4351;51.422;6.794;2023-07-13T03:16:42;8.90;;;2.30;;
8626;SDS011;4351;51.422;6.794;2023-07-13T03:19:11;5.13;;;1.77;;
8626;SDS011;4351;51.422;6.794;2023-07-13T03:21:41;6.30;;;1.87;;
8626;SDS011;4351;51.422;6.794;2023-07-13T03:24:09;6.13;;;1.83;;
8626;SDS011;4351;51.422;6.794;2023-07-13T03:26:37;5.60;;;1.77;;
8626;SDS011;4351;51.422;6.794;2023-07-13T03:29:05;6.00;;;2.00;;
8626;SDS011;4351;51.422;6.794;2023-07-13T03:31:35;5.50;;;1.87;;
8626;SDS011;4351;51.422;6.794;2023-07-13T03:34:05;5.10;;;1.50;;
8626;SDS011;4351;51.422;6.794;2023-07-13T03:36:34;4.40;;;1.83;;
8626;SDS011;4351;51.422;6.794;2023-07-13T03:39:05;5.17;;;1.57;;
8626;SDS011;4351;51.422;6.794;2023-07-13T03:41:45;6.17;;;1.77;;
8626;SDS011;4351;51.422;6.794;2023-07-13T03:44:13;7.57;;;1.80;;
8626;SDS011;4351;51.422;6.794;2023-07-13T03:46:43;3.80;;;1.73;;
8626;SDS011;4351;51.422;6.794;2023-07-13T03:49:14;5.30;;;1.90;;
8626;SDS011;4351;51.422;6.794;2023-07-13T03:51:42;5.20;;;2.00;;
8626;SDS011;4351;51.422;6.794;2023-07-13T03:54:10;7.33;;;1.93;;
8626;SDS011;4351;51.422;6.794;2023-07-13T03:56:39;5.30;;;1.63;;
8626;SDS011;4351;51.422;6.794;2023-07-13T03:59:08;6.57;;;1.73;;
8626;SDS011;4351;51.422;6.794;2023-07-13T04:01:36;4.33;;;1.83;;
8626;SDS011;4351;51.422;6.794;2023-07-13T04:04:04;7.23;;;1.90;;
8626;SDS011;4351;51.422;6.794;2023-07-13T04:06:33;6.13;;;2.00;;
8626;SDS011;4351;51.422;6.794;2023-07-13T04:09:02;5.83;;;1.97;;
8626;SDS011;4351;51.422;6.794;2023-07-13T04:11:32;5.70;;;2.03;;
8626;SDS011;4351;51.422;6.794;2023-07-13T04:14:02;5.97;;;2.07;;
8626;SDS011;4351;51.422;6.794;2023-07-13T04:16:30;4.97;;;1.67;;
8626;SDS011;4351;51.422;6.794;2023-07-13T04:18:58;5.63;;;1.93;;
8626;SDS011;4351;51.422;6.794;2023-07-13T04:21:27;6.73;;;2.07;;
8626;SDS011;4351;51.422;6.794;2023-07-13T04:23:59;7.07;;;2.10;;
8626;SDS011;4351;51.422;6.794;2023-07-13T04:26:26;4.83;;;1.90;;
8626;SDS011;4351;51.422;6.794;2023-07-13T04:28:55;7.60;;;1.97;;
8626;SDS011;4351;51.422;6.794;2023-07-13T04:31:23;6.23;;;2.13;;
8626;SDS011;4351;51.422;6.794;2023-07-13T04:33:51;5.80;;;2.23;;
8626;SDS011;4351;51.422;6.794;2023-07-13T04:36:19;5.60;;;1.87;;
8626;SDS011;4351;51.422;6.794;2023-07-13T04:38:47;3.70;;;1.80;;
8626;SDS011;4351;51.422;6.794;2023-07-13T04:41:17;8.17;;;2.20;;
8626;SDS011;4351;51.422;6.794;2023-07-13T04:43:45;4.17;;;2.30;;
8626;SDS011;4351;51.422;6.794;2023-07-13T04:46:14;7.30;;;2.20;;
8626;SDS011;4351;51.422;6.794;2023-07-13T04:48:43;6.67;;;2.00;;
8626;SDS011;4351;51.422;6.794;2023-07-13T04:51:11;5.23;;;1.70;;
8626;SDS011;4351;51.422;6.794;2023-07-13T04:53:39;8.40;;;1.93;;
8626;SDS011;4351;51.422;6.794;2023-07-13T04:56:07;6.43;;;2.27;;
8626;SDS011;4351;51.422;6.794;2023-07-13T04:58:37;6.30;;;2.40;;
8626;SDS011;4351;51.422;6.794;2023-07-13T05:01:07;5.53;;;1.97;;
8626;SDS011;4351;51.422;6.794;2023-07-13T05:03:35;6.93;;;2.33;;
8626;SDS011;4351;51.422;6.794;2023-07-13T05:06:05;7.50;;;2.63;;
8626;SDS011;4351;51.422;6.794;2023-07-13T05:08:36;7.40;;;2.63;;
8626;SDS011;4351;51.422;6.794;2023-07-13T05:11:04;9.80;;;2.47;;
8626;SDS011;4351;51.422;6.794;2023-07-13T05:13:34;7.03;;;2.40;;
8626;SDS011;4351;51.422;6.794;2023-07-13T05:16:03;7.07;;;2.67;;
8626;SDS011;4351;51.422;6.794;2023-07-13T05:18:34;6.37;;;2.00;;
8626;SDS011;4351;51.422;6.794;2023-07-13T05:21:03;10.37;;;2.53;;
8626;SDS011;4351;51.422;6.794;2023-07-13T05:23:33;6.67;;;2.40;;
8626;SDS011;4351;51.422;6.794;2023-07-13T05:26:02;6.17;;;2.20;;
8626;SDS011;4351;51.422;6.794;2023-07-13T05:28:35;10.37;;;3.07;;
8626;SDS011;4351;51.422;6.794;2023-07-13T05:31:06;9.13;;;3.13;;
8626;SDS011;4351;51.422;6.794;2023-07-13T05:33:36;9.57;;;2.60;;
8626;SDS011;4351;51.422;6.794;2023-07-13T05:36:04;9.40;;;3.00;;
8626;SDS011;4351;51.422;6.794;2023-07-13T05:38:32;7.47;;;2.70;;
8626;SDS011;4351;51.422;6.794;2023-07-13T05:41:01;7.30;;;3.20;;
8626;SDS011;4351;51.422;6.794;2023-07-13T05:43:31;7.07;;;2.53;;
8626;SDS011;4351;51.422;6.794;2023-07-13T05:45:59;9.00;;;2.80;;
8626;SDS011;4351;51.422;6.794;2023-07-13T05:48:28;9.67;;;2.70;;
8626;SDS011;4351;51.422;6.794;2023-07-13T05:50:56;7.63;;;2.70;;
8626;SDS011;4351;51.422;6.794;2023-07-13T05:53:24;7.80;;;2.77;;
8626;SDS011;4351;51.422;6.794;2023-07-13T05:55:53;12.57;;;3.10;;
8626;SDS011;4351;51.422;6.794;2023-07-13T05:58:23;10.03;;;3.03;;
8626;SDS011;4351;51.422;6.794;2023-07-13T06:00:58;6.23;;;2.83;;
8626;SDS011;4351;51.422;6.794;2023-07-13T06:03:29;8.87;;;3.00;;
8626;SDS011;4351;51.422;6.794;2023-07-13T06:05:57;9.00;;;2.90;;
8626;SDS011;4351;51.422;6.794;2023-07-13T06:08:26;9.40;;;3.53;;
8626;SDS011;4351;51.422;6.794;2023-07-13T06:10:54;10.93;;;3.20;;
8626;SDS011;4351;51.422;6.794;2023-07-13T06:13:28;9.53;;;3.37;;
8626;SDS011;4351;51.422;6.794;2023-07-13T06:15:56;13.03;;;3.73;;
8626;SDS011;4351;51.422;6.794;2023-07-13T06:18:24;15.43;;;4.10;;
8626;SDS011;4351;51.422;6.794;2023-07-13T06:20:53;9.97;;;3.93;;
8626;SDS011;4351;51.422;6.794;2023-07-13T06:23:21;11.97;;;3.63;;
8626;SDS011;4351;51.422;6.794;2023-07-13T06:25:48;12.70;;;3.80;;
8626;SDS011;4351;51.422;6.794;2023-07-13T06:28:16;10.20;;;3.37;;
8626;SDS011;4351;51.422;6.794;2023-07-13T06:30:44;14.00;;;3.63;;
8626;SDS011;4351;51.422;6.794;2023-07-13T06:33:12;7.83;;;3.40;;
8626;SDS011;4351;51.422;6.794;2023-07-13T06:35:40;10.93;;;3.80;;
8626;SDS011;4351;51.422;6.794;2023-07-13T06:38:09;10.87;;;3.63;;
8626;SDS011;4351;51.422;6.794;2023-07-13T06:40:37;10.83;;;3.50;;
8626;SDS011;4351;51.422;6.794;2023-07-13T06:43:05;12.50;;;3.90;;
8626;SDS011;4351;51.422;6.794;2023-07-13T06:45:34;12.10;;;3.60;;
8626;SDS011;4351;51.422;6.794;2023-07-13T06:48:07;10.03;;;3.70;;
8626;SDS011;4351;51.422;6.794;2023-07-13T06:50:35;10.18;;;3.95;;
8626;SDS011;4351;51.422;6.794;2023-07-13T06:53:03;10.23;;;3.80;;
8626;SDS011;4351;51.422;6.794;2023-07-13T06:55:32;11.13;;;3.47;;
8626;SDS011;4351;51.422;6.794;2023-07-13T06:58:00;9.97;;;3.47;;
8626;SDS011;4351;51.422;6.794;2023-07-13T07:00:28;9.20;;;3.37;;
8626;SDS011;4351;51.422;6.794;2023-07-13T07:02:56;9.13;;;3.23;;
8626;SDS011;4351;51.422;6.794;2023-07-13T07:05:24;10.77;;;3.83;;
8626;SDS011;4351;51.422;6.794;2023-07-13T07:07:53;10.87;;;3.20;;
8626;SDS011;4351;51.422;6.794;2023-07-13T07:10:22;13.60;;;3.90;;
8626;SDS011;4351;51.422;6.794;2023-07-13T07:12:51;9.87;;;3.10;;
8626;SDS011;4351;51.422;6.794;2023-07-13T07:15:19;11.20;;;3.67;;
8626;SDS011;4351;51.422;6.794;2023-07-13T07:17:47;11.77;;;3.53;;
8626;SDS011;4351;51.422;6.794;2023-07-13T07:20:15;11.10;;;3.70;;
8626;SDS011;4351;51.422;6.794;2023-07-13T07:22:43;10.47;;;3.70;;
8626;SDS011;4351;51.422;6.794;2023-07-13T07:25:11;14.47;;;3.50;;
8626;SDS011;4351;51.422;6.794;2023-07-13T07:27:39;10.70;;;3.50;;
8626;SDS011;4351;51.422;6.794;2023-07-13T07:30:11;8.63;;;3.93;;
8626;SDS011;4351;51.422;6.794;2023-07-13T07:32:43;10.30;;;3.77;;
8626;SDS011;4351;51.422;6.794;2023-07-13T07:35:14;9.40;;;3.90;;
8626;SDS011;4351;51.422;6.794;2023-07-13T07:37:41;8.53;;;3.33;;
8626;SDS011;4351;51.422;6.794;2023-07-13T07:40:12;9.63;;;4.23;;
8626;SDS011;4351;51.422;6.794;2023-07-13T07:42:43;10.50;;;3.67;;
8626;SDS011;4351;51.422;6.794;2023-07-13T07:45:12;8.63;;;3.40;;
8626;SDS011;4351;51.422;6.794;2023-07-13T07:47:41;11.70;;;3.90;;
8626;SDS011;4351;51.422;6.794;2023-07-13T07:50:09;9.87;;;4.00;;
8626;SDS011;4351;51.422;6.794;2023-07-13T07:52:37;9.13;;;4.10;;
8626;SDS011;4351;51.422;6.794;2023-07-13T07:55:06;9.43;;;4.20;;
8626;SDS011;4351;51.422;6.794;2023-07-13T07:57:37;8.63;;;3.87;;
8626;SDS011;4351;51.422;6.794;2023-07-13T08:00:09;8.60;;;3.80;;
8626;SDS011;4351;51.422;6.794;2023-07-13T08:02:43;10.20;;;3.70;;
8626;SDS011;4351;51.422;6.794;2023-07-13T08:05:14;10.70;;;3.63;;
8626;SDS011;4351;51.422;6.794;2023-07-13T08:07:45;10.03;;;3.70;;
8626;SDS011;4351;51.422;6.794;2023-07-13T08:10:13;13.07;;;4.03;;
8626;SDS011;4351;51.422;6.794;2023-07-13T08:12:41;9.53;;;3.97;;
8626;SDS011;4351;51.422;6.794;2023-07-13T08:15:29;13.13;;;4.63;;
8626;SDS011;4351;51.422;6.794;2023-07-13T08:17:58;12.73;;;4.60;;
8626;SDS011;4351;51.422;6.794;2023-07-13T08:20:26;6.17;;;3.80;;
8626;SDS011;4351;51.422;6.794;2023-07-13T08:22:54;10.60;;;4.30;;
8626;SDS011;4351;51.422;6.794;2023-07-13T08:25:22;12.10;;;4.50;;
8626;SDS011;4351;51.422;6.794;2023-07-13T08:27:50;10.53;;;3.87;;
8626;SDS011;4351;51.422;6.794;2023-07-13T08:30:18;9.93;;;3.97;;
8626;SDS011;4351;51.422;6.794;2023-07-13T08:32:45;11.83;;;4.30;;
8626;SDS011;4351;51.422;6.794;2023-07-13T08:35:15;12.70;;;4.60;;
8626;SDS011;4351;51.422;6.794;2023-07-13T08:37:43;10.30;;;4.53;;
8626;SDS011;4351;51.422;6.794;2023-07-13T08:40:11;9.80;;;4.40;;
8626;SDS011;4351;51.422;6.794;2023-07-13T08:42:42;8.50;;;3.40;;
8626;SDS011;4351;51.422;6.794;2023-07-13T08:45:14;10.87;;;3.90;;
8626;SDS011;4351;51.422;6.794;2023-07-13T08:47:52;7.93;;;3.33;;
8626;SDS011;4351;51.422;6.794;2023-07-13T08:50:24;10.57;;;3.20;;
8626;SDS011;4351;51.422;6.794;2023-07-13T08:52:58;7.33;;;3.23;;
8626;SDS011;4351;51.422;6.794;2023-07-13T08:55:30;8.30;;;3.30;;
8626;SDS011;4351;51.422;6.794;2023-07-13T08:58:03;8.77;;;3.23;;
8626;SDS011;4351;51.422;6.794;2023-07-13T09:00:38;9.07;;;3.57;;
8626;SDS011;4351;51.422;6.794;2023-07-13T09:03:16;8.90;;;3.10;;
8626;SDS011;4351;51.422;6.794;2023-07-13T09:05:53;9.93;;;3.37;;
8626;SDS011;4351;51.422;6.794;2023-07-13T09:08:42;10.03;;;2.97;;
8626;SDS011;4351;51.422;6.794;2023-07-13T09:11:23;7.10;;;2.77;;
8626;SDS011;4351;51.422;6.794;2023-07-13T09:14:04;8.40;;;3.13;;
8626;SDS011;4351;51.422;6.794;2023-07-13T09:16:46;5.17;;;2.70;;
8626;SDS011;4351;51.422;6.794;2023-07-13T09:19:16;7.10;;;3.07;;
8626;SDS011;4351;51.422;6.794;2023-07-13T09:21:51;7.37;;;3.30;;
8626;SDS011;4351;51.422;6.794;2023-07-13T09:24:26;8.87;;;3.07;;
8626;SDS011;4351;51.422;6.794;2023-07-13T09:26:58;10.77;;;3.37;;
8626;SDS011;4351;51.422;6.794;2023-07-13T09:29:27;10.00;;;3.53;;
8626;SDS011;4351;51.422;6.794;2023-07-13T09:32:00;10.27;;;3.77;;
8626;SDS011;4351;51.422;6.794;2023-07-13T09:34:31;10.00;;;3.50;;
8626;SDS011;4351;51.422;6.794;2023-07-13T09:37:02;7.83;;;3.47;;
8626;SDS011;4351;51.422;6.794;2023-07-13T09:39:31;12.33;;;3.10;;
8626;SDS011;4351;51.422;6.794;2023-07-13T09:42:06;9.57;;;3.10;;
8626;SDS011;4351;51.422;6.794;2023-07-13T09:44:44;8.43;;;3.60;;
8626;SDS011;4351;51.422;6.794;2023-07-13T09:47:20;8.00;;;3.07;;
8626;SDS011;4351;51.422;6.794;2023-07-13T09:49:54;7.93;;;2.93;;
8626;SDS011;4351;51.422;6.794;2023-07-13T09:52:38;12.10;;;3.43;;
8626;SDS011;4351;51.422;6.794;2023-07-13T09:55:22;7.93;;;3.60;;
8626;SDS011;4351;51.422;6.794;2023-07-13T09:57:52;9.70;;;3.30;;
8626;SDS011;4351;51.422;6.794;2023-07-13T10:00:21;11.33;;;3.30;;
8626;SDS011;4351;51.422;6.794;2023-07-13T10:02:59;10.67;;;3.57;;
8626;SDS011;4351;51.422;6.794;2023-07-13T10:05:39;7.10;;;2.70;;
8626;SDS011;4351;51.422;6.794;2023-07-13T10:08:16;10.63;;;3.10;;
8626;SDS011;4351;51.422;6.794;2023-07-13T10:10:57;6.17;;;2.70;;
8626;SDS011;4351;51.422;6.794;2023-07-13T10:13:28;10.50;;;3.60;;
8626;SDS011;4351;51.422;6.794;2023-07-13T10:15:58;9.13;;;3.40;;
8626;SDS011;4351;51.422;6.794;2023-07-13T10:18:28;7.27;;;3.30;;
8626;SDS011;4351;51.422;6.794;2023-07-13T10:21:10;9.33;;;5.17;;
8626;SDS011;4351;51.422;6.794;2023-07-13T10:23:46;9.10;;;2.83;;
8626;SDS011;4351;51.422;6.794;2023-07-13T10:26:19;9.17;;;3.37;;
8626;SDS011;4351;51.422;6.794;2023-07-13T10:28:52;7.50;;;2.80;;
8626;SDS011;4351;51.422;6.794;2023-07-13T10:31:23;7.47;;;2.90;;
8626;SDS011;4351;51.422;6.794;2023-07-13T10:33:52;8.70;;;3.27;;
8626;SDS011;4351;51.422;6.794;2023-07-13T10:36:26;10.73;;;3.10;;
8626;SDS011;4351;51.422;6.794;2023-07-13T10:39:01;19.97;;;3.70;;
8626;SDS011;4351;51.422;6.794;2023-07-13T10:41:33;7.67;;;2.67;;
8626;SDS011;4351;51.422;6.794;2023-07-13T10:44:06;7.67;;;2.77;;
8626;SDS011;4351;51.422;6.794;2023-07-13T10:46:44;6.87;;;3.07;;
8626;SDS011;4351;51.422;6.794;2023-07-13T10:49:13;7.83;;;2.53;;
8626;SDS011;4351;51.422;6.794;2023-07-13T10:51:42;7.90;;;2.70;;
8626;SDS011;4351;51.422;6.794;2023-07-13T10:54:12;7.73;;;3.23;;
8626;SDS011;4351;51.422;6.794;2023-07-13T10:56:47;6.20;;;2.87;;
8626;SDS011;4351;51.422;6.794;2023-07-13T10:59:18;7.50;;;2.60;;
8626;SDS011;4351;51.422;6.794;2023-07-13T11:01:54;7.70;;;3.10;;
8626;SDS011;4351;51.422;6.794;2023-07-13T11:04:25;5.37;;;2.57;;
8626;SDS011;4351;51.422;6.794;2023-07-13T11:06:56;7.90;;;2.97;;
8626;SDS011;4351;51.422;6.794;2023-07-13T11:09:32;7.90;;;2.70;;
8626;SDS011;4351;51.422;6.794;2023-07-13T11:12:07;8.73;;;2.90;;
8626;SDS011;4351;51.422;6.794;2023-07-13T11:14:36;6.40;;;2.70;;
8626;SDS011;4351;51.422;6.794;2023-07-13T11:17:24;6.53;;;2.67;;
8626;SDS011;4351;51.422;6.794;2023-07-13T11:20:10;8.10;;;2.57;;
8626;SDS011;4351;51.422;6.794;2023-07-13T11:22:49;7.90;;;2.73;;
8626;SDS011;4351;51.422;6.794;2023-07-13T11:25:26;7.00;;;2.60;;
8626;SDS011;4351;51.422;6.794;2023-07-13T11:28:12;5.07;;;2.53;;
8626;SDS011;4351;51.422;6.794;2023-07-13T11:30:46;5.00;;;1.83;;
8626;SDS011;4351;51.422;6.794;2023-07-13T11:33:17;5.50;;;2.00;;
8626;SDS011;4351;51.422;6.794;2023-07-13T11:35:49;5.23;;;2.30;;
8626;SDS011;4351;51.422;6.794;2023-07-13T11:38:22;4.23;;;2.00;;
8626;SDS011;4351;51.422;6.794;2023-07-13T11:40:58;5.93;;;2.13;;
8626;SDS011;4351;51.422;6.794;2023-07-13T11:43:30;4.87;;;2.30;;
8626;SDS011;4351;51.422;6.794;2023-07-13T11:46:12;5.23;;;1.90;;
8626;SDS011;4351;51.422;6.794;2023-07-13T11:48:41;4.13;;;2.20;;
8626;SDS011;4351;51.422;6.794;2023-07-13T11:51:14;4.77;;;2.20;;
8626;SDS011;4351;51.422;6.794;2023-07-13T11:53:49;5.03;;;1.87;;
8626;SDS011;4351;51.422;6.794;2023-07-13T11:56:23;6.57;;;2.23;;
8626;SDS011;4351;51.422;6.794;2023-07-13T11:58:52;7.70;;;2.20;;
8626;SDS011;4351;51.422;6.794;2023-07-13T12:01:23;4.50;;;2.03;;
8626;SDS011;4351;51.422;6.794;2023-07-13T12:03:55;3.77;;;2.10;;
8626;SDS011;4351;51.422;6.794;2023-07-13T12:06:26;4.93;;;2.10;;
8626;SDS011;4351;51.422;6.794;2023-07-13T12:08:56;4.83;;;1.90;;
8626;SDS011;4351;51.422;6.794;2023-07-13T12:11:26;4.03;;;2.17;;
8626;SDS011;4351;51.422;6.794;2023-07-13T12:13:55;5.63;;;2.13;;
8626;SDS011;4351;51.422;6.794;2023-07-13T12:16:25;7.07;;;2.30;;
8626;SDS011;4351;51.422;6.794;2023-07-13T12:18:56;6.03;;;2.40;;
8626;SDS011;4351;51.422;6.794;2023-07-13T12:21:27;5.10;;;2.37;;
8626;SDS011;4351;51.422;6.794;2023-07-13T12:23:59;6.43;;;2.20;;
8626;SDS011;4351;51.422;6.794;2023-07-13T12:26:30;3.97;;;2.03;;
8626;SDS011;4351;51.422;6.794;2023-07-13T12:28:59;5.37;;;2.00;;
8626;SDS011;4351;51.422;6.794;2023-07-13T12:31:33;5.20;;;2.10;;
8626;SDS011;4351;51.422;6.794;2023-07-13T12:34:06;4.83;;;2.20;;
8626;SDS011;4351;51.422;6.794;2023-07-13T12:36:38;4.93;;;2.10;;
8626;SDS011;4351;51.422;6.794;2023-07-13T12:39:12;7.60;;;1.90;;
8626;SDS011;4351;51.422;6.794;2023-07-13T12:41:44;6.13;;;1.97;;
8626;SDS011;4351;51.422;6.794;2023-07-13T12:44:14;4.30;;;1.60;;
8626;SDS011;4351;51.422;6.794;2023-07-13T12:46:51;3.90;;;2.00;;
8626;SDS011;4351;51.422;6.794;2023-07-13T12:49:23;4.37;;;1.90;;
8626;SDS011;4351;51.422;6.794;2023-07-13T12:51:59;4.13;;;1.90;;
8626;SDS011;4351;51.422;6.794;2023-07-13T12:54:29;3.50;;;1.63;;
8626;SDS011;4351;51.422;6.794;2023-07-13T12:56:59;4.03;;;1.87;;
8626;SDS011;4351;51.422;6.794;2023-07-13T12:59:30;5.33;;;1.90;;
8626;SDS011;4351;51.422;6.794;2023-07-13T13:02:09;5.03;;;1.80;;
8626;SDS011;4351;51.422;6.794;2023-07-13T13:04:51;4.53;;;1.90;;
8626;SDS011;4351;51.422;6.794;2023-07-13T13:07:21;5.53;;;2.23;;
8626;SDS011;4351;51.422;6.794;2023-07-13T13:09:49;5.63;;;2.10;;
8626;SDS011;4351;51.422;6.794;2023-07-13T13:12:18;10.07;;;2.43;;
8626;SDS011;4351;51.422;6.794;2023-07-13T13:14:47;4.17;;;2.00;;
8626;SDS011;4351;51.422;6.794;2023-07-13T13:17:17;5.43;;;2.00;;
8626;SDS011;4351;51.422;6.794;2023-07-13T13:19:47;8.17;;;2.17;;
8626;SDS011;4351;51.422;6.794;2023-07-13T13:22:16;5.23;;;1.90;;
8626;SDS011;4351;51.422;6.794;2023-07-13T13:24:44;5.87;;;2.00;;
8626;SDS011;4351;51.422;6.794;2023-07-13T13:27:14;6.73;;;2.13;;
8626;SDS011;4351;51.422;6.794;2023-07-13T13:29:47;6.27;;;1.83;;
8626;SDS011;4351;51.422;6.794;2023-07-13T13:32:18;4.10;;;1.60;;
8626;SDS011;4351;51.422;6.794;2023-07-13T13:34:46;3.17;;;1.80;;
8626;SDS011;4351;51.422;6.794;2023-07-13T13:37:17;2.30;;;1.70;;
8626;SDS011;4351;51.422;6.794;2023-07-13T13:39:47;3.57;;;1.80;;
8626;SDS011;4351;51.422;6.794;2023-07-13T13:42:33;4.53;;;1.93;;
8626;SDS011;4351;51.422;6.794;2023-07-13T13:45:03;5.17;;;1.90;;
8626;SDS011;4351;51.422;6.794;2023-07-13T13:47:32;6.97;;;1.90;;
8626;SDS011;4351;51.422;6.794;2023-07-13T13:50:09;4.33;;;1.87;;
8626;SDS011;4351;51.422;6.794;2023-07-13T13:52:39;3.80;;;1.60;;
8626;SDS011;4351;51.422;6.794;2023-07-13T13:55:11;4.37;;;1.80;;
8626;SDS011;4351;51.422;6.794;2023-07-13T13:57:40;4.93;;;1.90;;
8626;SDS011;4351;51.422;6.794;2023-07-13T14:00:10;6.77;;;1.90;;
8626;SDS011;4351;51.422;6.794;2023-07-13T14:02:41;5.87;;;1.70;;
8626;SDS011;4351;51.422;6.794;2023-07-13T14:05:14;2.70;;;1.70;;
8626;SDS011;4351;51.422;6.794;2023-07-13T14:07:45;4.17;;;1.80;;
8626;SDS011;4351;51.422;6.794;2023-07-13T14:10:15;5.83;;;2.50;;
8626;SDS011;4351;51.422;6.794;2023-07-13T14:12:44;5.40;;;2.80;;
8626;SDS011;4351;51.422;6.794;2023-07-13T14:15:18;5.10;;;2.73;;
8626;SDS011;4351;51.422;6.794;2023-07-13T14:17:50;9.00;;;2.80;;
8626;SDS011;4351;51.422;6.794;2023-07-13T14:20:18;9.37;;;3.43;;
8626;SDS011;4351;51.422;6.794;2023-07-13T14:22:48;8.03;;;3.13;;
8626;SDS011;4351;51.422;6.794;2023-07-13T14:25:16;12.40;;;3.53;;
8626;SDS011;4351;51.422;6.794;2023-07-13T14:27:46;11.77;;;4.43;;
8626;SDS011;4351;51.422;6.794;2023-07-13T14:30:19;9.47;;;4.60;;
8626;SDS011;4351;51.422;6.794;2023-07-13T14:32:49;11.20;;;5.10;;
8626;SDS011;4351;51.422;6.794;2023-07-13T14:35:18;9.70;;;4.70;;
8626;SDS011;4351;51.422;6.794;2023-07-13T14:37:50;10.07;;;4.37;;
8626;SDS011;4351;51.422;6.794;2023-07-13T14:40:19;9.13;;;4.17;;
8626;SDS011;4351;51.422;6.794;2023-07-13T14:42:53;5.57;;;2.90;;
8626;SDS011;4351;51.422;6.794;2023-07-13T14:45:22;4.77;;;2.63;;
8626;SDS011;4351;51.422;6.794;2023-07-13T14:47:50;7.13;;;2.77;;
8626;SDS011;4351;51.422;6.794;2023-07-13T14:50:19;4.40;;;2.50;;
8626;SDS011;4351;51.422;6.794;2023-07-13T14:52:48;3.67;;;2.20;;
8626;SDS011;4351;51.422;6.794;2023-07-13T14:55:17;5.33;;;2.60;;
8626;SDS011;4351;51.422;6.794;2023-07-13T14:57:46;5.27;;;2.70;;
8626;SDS011;4351;51.422;6.794;2023-07-13T15:00:15;4.93;;;2.30;;
8626;SDS011;4351;51.422;6.794;2023-07-13T15:02:47;4.87;;;2.07;;
8626;SDS011;4351;51.422;6.794;2023-07-13T15:05:18;4.87;;;2.27;;
8626;SDS011;4351;51.422;6.794;2023-07-13T15:07:48;4.93;;;2.40;;
8626;SDS011;4351;51.422;6.794;2023-07-13T15:10:16;5.43;;;2.70;;
8626;SDS011;4351;51.422;6.794;2023-07-13T15:12:46;5.43;;;2.50;;
8626;SDS011;4351;51.422;6.794;2023-07-13T15:15:14;9.57;;;2.67;;
8626;SDS011;4351;51.422;6.794;2023-07-13T15:17:43;5.40;;;2.20;;
8626;SDS011;4351;51.422;6.794;2023-07-13T15:20:17;8.80;;;2.43;;
8626;SDS011;4351;51.422;6.794;2023-07-13T15:22:49;6.17;;;1.77;;
8626;SDS011;4351;51.422;6.794;2023-07-13T15:25:18;9.10;;;2.47;;
8626;SDS011;4351;51.422;6.794;2023-07-13T15:27:47;5.00;;;2.37;;
8626;SDS011;4351;51.422;6.794;2023-07-13T15:30:15;2.63;;;1.80;;
8626;SDS011;4351;51.422;6.794;2023-07-13T15:32:43;5.00;;;2.13;;
8626;SDS011;4351;51.422;6.794;2023-07-13T15:35:17;3.10;;;1.80;;